Huvudsida
METAR-TAF:

METAR-TAF

Flygplatser :

Irkutsk, Ryssland

latitud: 52-16N, longitud: 104-19E, höjd: 513 m

Aktuellt väderrapport

Denna rapport gjordes för 38 minuter sedan, klockan 00:00 UTC
Vind 4 kt från ost
Temperatur -29°C
Fuktighet 75%
Tryck 1037 hPa
Sikt 10 km eller mer
Inga moln under 1 500 m eller inga cumulonimbus

METAR: UIII 100000Z 08002MPS CAVOK M29/M32 Q1037 R12/810350 NOSIG RMK QFE734/0979

Tid: 08:38 (00:38 UTC)

Väderprognos

Denna rapport gjordes för 1 timme och 38 minuter sedan, klockan 23:00 UTC
Prognos gäller från 10 kl. 00 UTC till 10 kl. 24 UTC
Vind 6 kt från sydost
Sikt 10 km eller mer

TAF: UIII 092300Z 1000/1024 13003MPS 9999 NSC

Aktuella väderrapporter och prognoser från 4000 flygplatser (METAR- och TAF-rapporter).

De tillgängliga stationerna syns som gula och röda prickar på kartan.

För musen över prickarna för att se namnen på stationerna.

Klicka sedan för att få väderrapporter och prognoser.

För att ändra kartan: Klicka på de gröna knapparna med ett svart kors på för att zooma in; den gröna knappen med ett streck på för att zooma ut; eller på de gröna pilarna för angränsande kartor.


METAR-TAF: